Time;durP1;ratioP1;P1;durP2;ratioP2;P2;SDS_P1;SDS_P2;PMS_P1;PMS_P2;Temp;Humidity;BMP_temperature;BMP_pressure;BME280_temperature;BME280_humidity;BME280_pressure;Samples;Min_cycle;Max_cycle;Signal;HPM_P1;HPM_P2
2021/06/07 00:02:06;;;;;;;6.32;5.30;;;19.80;81.90;;;;;;5024633;28;20230;-70
2021/06/07 00:04:32;;;;;;;5.57;5.13;;;19.70;82.10;;;;;;5026767;28;20189;-69
2021/06/07 00:07:00;;;;;;;5.45;4.97;;;19.70;82.40;;;;;;5018685;28;20243;-71
2021/06/07 00:09:27;;;;;;;5.13;4.93;;;19.70;82.50;;;;;;5023108;28;20184;-73
2021/06/07 00:11:57;;;;;;;6.18;4.90;;;19.70;82.80;;;;;;5018927;28;20293;-71
2021/06/07 00:14:28;;;;;;;4.50;4.22;;;19.70;82.40;;;;;;5021167;28;20605;-70
2021/06/07 00:16:55;;;;;;;5.57;5.18;;;19.60;82.60;;;;;;5026553;28;20192;-70
2021/06/07 00:19:23;;;;;;;4.85;4.65;;;19.60;83.10;;;;;;5018112;28;20200;-71
2021/06/07 00:21:49;;;;;;;4.90;4.75;;;19.60;83.20;;;;;;5022820;28;20587;-70
2021/06/07 00:24:17;;;;;;;5.07;4.75;;;19.60;83.40;;;;;;5023708;28;20196;-70
2021/06/07 00:26:44;;;;;;;5.25;4.88;;;19.50;83.30;;;;;;5015130;28;20184;-70
2021/06/07 00:29:10;;;;;;;4.35;4.18;;;19.50;83.70;;;;;;5022134;28;20180;-73
2021/06/07 00:31:37;;;;;;;4.97;4.78;;;19.50;83.90;;;;;;5022517;28;20219;-72
2021/06/07 00:34:03;;;;;;;5.07;4.80;;;19.50;83.60;;;;;;5022356;28;20173;-72
2021/06/07 00:36:30;;;;;;;8.27;5.30;;;19.50;83.70;;;;;;5017439;28;20203;-71
2021/06/07 00:38:56;;;;;;;5.78;5.18;;;19.40;83.60;;;;;;5026316;28;20192;-70
2021/06/07 00:41:23;;;;;;;5.22;4.70;;;19.40;83.70;;;;;;5016991;28;20199;-73
2021/06/07 00:43:57;;;;;;;5.28;5.03;;;19.40;83.70;;;;;;5016148;28;20668;-72
2021/06/07 00:46:24;;;;;;;5.45;5.15;;;19.40;83.30;;;;;;5014706;28;20593;-71
2021/06/07 00:48:51;;;;;;;5.38;5.13;;;19.40;83.80;;;;;;5023103;28;20181;-72
2021/06/07 00:51:17;;;;;;;5.97;5.38;;;19.40;83.90;;;;;;5024865;28;20298;-72
2021/06/07 00:53:43;;;;;;;5.32;4.93;;;19.30;83.60;;;;;;5025081;28;20291;-71
2021/06/07 00:56:10;;;;;;;5.32;5.03;;;19.30;83.40;;;;;;5025077;28;20180;-72
2021/06/07 00:58:40;;;;;;;6.28;5.80;;;19.30;83.30;;;;;;5021876;28;20180;-72
2021/06/07 01:01:10;;;;;;;5.72;5.43;;;19.30;83.20;;;;;;5022199;28;20231;-73
2021/06/07 01:03:37;;;;;;;6.10;5.60;;;19.30;83.10;;;;;;5033549;28;20180;-72
2021/06/07 01:06:05;;;;;;;5.60;5.20;;;19.30;83.00;;;;;;5026685;28;20270;-73
2021/06/07 01:08:31;;;;;;;9.50;6.20;;;19.30;83.20;;;;;;5023595;28;20223;-72
2021/06/07 01:10:57;;;;;;;5.22;4.97;;;19.30;83.30;;;;;;5025934;28;20212;-72
2021/06/07 01:13:24;;;;;;;5.35;5.05;;;19.20;83.40;;;;;;5026252;28;20193;-72
2021/06/07 01:15:51;;;;;;;5.43;4.90;;;19.20;83.30;;;;;;5013125;28;20552;-72
2021/06/07 01:18:23;;;;;;;5.63;5.30;;;19.20;83.40;;;;;;5023436;28;20195;-72
2021/06/07 01:20:50;;;;;;;9.57;6.28;;;19.20;83.50;;;;;;5021661;28;20203;-71
2021/06/07 01:23:16;;;;;;;6.13;5.72;;;19.20;83.50;;;;;;5023965;28;20207;-71
2021/06/07 01:25:43;;;;;;;6.22;5.78;;;19.20;83.60;;;;;;5018459;28;20220;-72
2021/06/07 01:28:11;;;;;;;6.20;5.70;;;19.20;83.50;;;;;;5021916;28;20188;-72
2021/06/07 01:30:41;;;;;;;7.13;6.43;;;19.10;83.60;;;;;;5022631;28;20321;-71
2021/06/07 01:33:09;;;;;;;5.65;5.32;;;19.10;83.40;;;;;;5019810;28;20211;-71
2021/06/07 01:35:35;;;;;;;6.22;5.85;;;19.10;83.50;;;;;;5019386;28;20187;-73
2021/06/07 01:38:02;;;;;;;6.15;5.68;;;19.20;83.50;;;;;;5027220;28;20209;-72
2021/06/07 01:40:40;;;;;;;6.93;6.18;;;19.20;83.80;;;;;;5027419;28;20259;-72
2021/06/07 01:43:06;;;;;;;8.93;5.70;;;19.20;83.10;;;;;;5017755;28;20184;-71
2021/06/07 01:45:34;;;;;;;8.25;5.45;;;19.10;83.80;;;;;;5019934;28;20674;-72
2021/06/07 01:48:03;;;;;;;6.18;5.32;;;19.10;83.60;;;;;;5027282;28;20235;-73
2021/06/07 01:50:29;;;;;;;6.47;5.65;;;19.10;83.50;;;;;;5018768;28;20187;-72
2021/06/07 01:52:55;;;;;;;5.82;5.53;;;19.10;83.90;;;;;;5024447;28;20212;-72
2021/06/07 01:55:31;;;;;;;6.88;5.85;;;19.10;83.80;;;;;;5026113;28;20250;-71
2021/06/07 01:57:57;;;;;;;6.07;5.50;;;19.10;83.30;;;;;;5024438;28;20180;-71
2021/06/07 02:00:25;;;;;;;5.80;5.38;;;19.00;83.60;;;;;;5018307;28;20574;-72
2021/06/07 02:02:51;;;;;;;5.63;5.22;;;19.00;83.50;;;;;;5024478;28;20737;-72
2021/06/07 02:05:21;;;;;;;6.57;6.07;;;19.00;84.00;;;;;;5017661;28;20188;-72
2021/06/07 02:07:51;;;;;;;6.22;5.80;;;19.00;83.70;;;;;;5016697;28;20683;-71
2021/06/07 02:10:18;;;;;;;6.68;6.10;;;19.00;83.30;;;;;;5020046;28;20262;-72
2021/06/07 02:12:44;;;;;;;5.65;5.30;;;19.00;84.00;;;;;;5019011;28;20925;-72
2021/06/07 02:15:11;;;;;;;5.68;5.22;;;19.00;84.00;;;;;;5019166;28;20221;-72
2021/06/07 02:17:38;;;;;;;5.75;5.32;;;19.00;83.80;;;;;;5023502;28;20189;-72
2021/06/07 02:20:11;;;;;;;6.32;5.93;;;19.00;84.00;;;;;;5012864;28;20199;-71
2021/06/07 02:22:39;;;;;;;6.93;5.10;;;18.90;83.60;;;;;;5020123;28;20189;-72
2021/06/07 02:25:06;;;;;;;6.00;5.43;;;18.90;84.00;;;;;;5017177;28;20303;-73
2021/06/07 02:27:32;;;;;;;6.05;5.75;;;18.90;84.20;;;;;;5025294;28;20205;-72
2021/06/07 02:30:12;;;;;;;5.18;4.88;;;18.90;84.00;;;;;;5024014;28;20607;-72
2021/06/07 02:32:39;;;;;;;5.55;5.10;;;18.90;84.10;;;;;;5018112;28;20222;-72
2021/06/07 02:35:07;;;;;;;5.18;4.68;;;18.90;84.20;;;;;;5027820;28;20188;-71
2021/06/07 02:37:32;;;;;;;6.40;5.63;;;18.90;84.20;;;;;;5032872;28;20192;-72
2021/06/07 02:39:58;;;;;;;6.20;5.70;;;18.90;84.20;;;;;;5029533;28;20546;-72
2021/06/07 02:42:24;;;;;;;5.85;5.35;;;18.90;84.40;;;;;;5023857;28;20192;-72
2021/06/07 02:44:50;;;;;;;5.10;4.80;;;18.90;84.40;;;;;;5027782;28;20188;-72
2021/06/07 02:47:16;;;;;;;5.63;5.22;;;18.80;84.30;;;;;;5028134;28;20331;-72
2021/06/07 02:49:42;;;;;;;9.05;5.40;;;18.80;84.60;;;;;;5021117;28;20200;-71
2021/06/07 02:52:08;;;;;;;5.95;5.65;;;18.80;84.70;;;;;;5024133;28;20211;-72
2021/06/07 02:54:35;;;;;;;5.80;5.22;;;18.80;85.10;;;;;;5027074;28;20269;-71
2021/06/07 02:57:01;;;;;;;5.30;4.90;;;18.80;85.10;;;;;;5026770;28;20258;-72
2021/06/07 02:59:26;;;;;;;5.28;4.88;;;18.80;85.20;;;;;;5027411;28;20184;-71
2021/06/07 03:01:52;;;;;;;5.82;5.43;;;18.80;85.10;;;;;;5015202;28;21576;-73
2021/06/07 03:04:18;;;;;;;5.68;5.25;;;18.80;85.10;;;;;;5039073;28;20752;-71
2021/06/07 03:06:44;;;;;;;5.18;4.78;;;18.70;85.10;;;;;;5026624;28;20184;-71
2021/06/07 03:09:10;;;;;;;6.03;5.68;;;18.80;85.30;;;;;;5023640;28;20193;-71
2021/06/07 03:11:36;;;;;;;5.55;5.10;;;18.80;85.30;;;;;;5020249;28;20281;-72
2021/06/07 03:14:02;;;;;;;4.75;4.55;;;18.80;85.20;;;;;;5021716;28;20254;-72
2021/06/07 03:16:28;;;;;;;5.68;5.38;;;18.80;85.20;;;;;;5022492;28;20189;-71
2021/06/07 03:18:53;;;;;;;6.55;5.95;;;18.80;85.40;;;;;;5026559;28;20184;-71
2021/06/07 03:21:19;;;;;;;6.97;5.30;;;18.80;85.30;;;;;;5027699;28;20241;-72
2021/06/07 03:23:45;;;;;;;6.90;6.32;;;18.80;85.30;;;;;;5016391;28;20185;-72
2021/06/07 03:26:11;;;;;;;6.57;5.47;;;18.80;85.50;;;;;;5022683;28;20192;-70
2021/06/07 03:28:37;;;;;;;5.43;5.03;;;18.80;85.70;;;;;;5019592;28;20682;-71
2021/06/07 03:31:05;;;;;;;5.50;5.20;;;18.80;85.50;;;;;;5019350;28;20212;-71
2021/06/07 03:33:31;;;;;;;5.68;5.30;;;18.80;85.30;;;;;;5026540;28;20181;-71
2021/06/07 03:35:57;;;;;;;6.00;5.50;;;18.90;85.20;;;;;;5019287;28;20234;-71
2021/06/07 03:38:25;;;;;;;5.43;4.97;;;18.90;85.10;;;;;;5019510;28;20192;-71
2021/06/07 03:40:53;;;;;;;5.85;5.30;;;19.00;85.20;;;;;;5021340;28;20235;-72
2021/06/07 03:43:22;;;;;;;6.20;5.75;;;18.90;85.10;;;;;;5023211;28;20192;-72
2021/06/07 03:45:48;;;;;;;6.80;6.18;;;19.00;85.30;;;;;;5021146;28;20690;-72
2021/06/07 03:48:14;;;;;;;6.57;6.03;;;19.00;85.40;;;;;;5022847;28;20215;-71
2021/06/07 03:50:40;;;;;;;6.32;5.93;;;19.00;85.50;;;;;;5023846;28;20185;-72
2021/06/07 03:53:08;;;;;;;6.22;5.78;;;19.00;84.90;;;;;;5017708;28;20272;-73
2021/06/07 03:55:35;;;;;;;6.00;5.60;;;19.10;84.60;;;;;;5025019;28;20234;-73
2021/06/07 03:58:01;;;;;;;6.00;5.60;;;19.10;84.80;;;;;;5017309;28;20184;-71
2021/06/07 04:00:29;;;;;;;5.28;5.03;;;19.20;84.80;;;;;;5022431;28;20188;-74
2021/06/07 04:02:56;;;;;;;5.90;5.50;;;19.20;84.50;;;;;;5020588;28;20670;-71
2021/06/07 04:05:22;;;;;;;6.70;5.15;;;19.20;84.50;;;;;;5019966;28;20181;-72
2021/06/07 04:07:48;;;;;;;6.40;6.00;;;19.30;84.10;;;;;;5020278;28;20191;-72
2021/06/07 04:10:18;;;;;;;7.80;5.72;;;19.30;83.80;;;;;;5024050;28;20188;-71
2021/06/07 04:12:46;;;;;;;6.40;5.95;;;19.40;83.70;;;;;;5024233;28;20227;-73
2021/06/07 04:15:15;;;;;;;7.22;6.55;;;19.40;84.00;;;;;;5027114;28;20296;-69
2021/06/07 04:17:44;;;;;;;6.43;5.93;;;19.40;83.60;;;;;;5024213;28;20971;-69
2021/06/07 04:20:16;;;;;;;7.03;6.30;;;19.50;84.00;;;;;;5024185;28;20215;-69
2021/06/07 04:22:43;;;;;;;6.13;5.57;;;19.50;84.20;;;;;;5019198;28;20192;-72
2021/06/07 04:25:11;;;;;;;6.43;5.93;;;19.60;83.50;;;;;;5022200;28;20786;-72
2021/06/07 04:27:38;;;;;;;5.70;5.35;;;19.60;83.00;;;;;;5016438;28;20180;-73
2021/06/07 04:30:09;;;;;;;6.90;6.22;;;19.70;82.90;;;;;;5019142;28;20237;-72
2021/06/07 04:32:36;;;;;;;6.53;6.10;;;19.70;82.50;;;;;;5021966;28;20905;-72
2021/06/07 04:35:03;;;;;;;6.32;5.90;;;19.80;82.40;;;;;;5015032;28;20263;-70
2021/06/07 04:37:29;;;;;;;6.07;5.45;;;19.80;82.10;;;;;;5028794;28;20180;-71
2021/06/07 04:39:56;;;;;;;6.72;6.10;;;19.90;82.00;;;;;;5023783;28;20617;-70
2021/06/07 04:42:21;;;;;;;6.40;6.00;;;20.00;82.30;;;;;;5021018;28;20189;-68
2021/06/07 04:44:47;;;;;;;14.73;6.05;;;20.00;82.10;;;;;;5024851;28;20990;-71
2021/06/07 04:47:13;;;;;;;6.60;6.10;;;20.00;81.80;;;;;;5013542;28;20204;-70
2021/06/07 04:49:39;;;;;;;5.85;5.45;;;20.00;81.70;;;;;;5012850;28;20220;-68
2021/06/07 04:52:05;;;;;;;6.40;5.95;;;20.10;81.50;;;;;;5020647;28;20298;-70
2021/06/07 04:54:31;;;;;;;6.13;5.72;;;20.10;81.70;;;;;;5024948;28;20176;-69
2021/06/07 04:56:57;;;;;;;5.60;5.32;;;20.20;81.70;;;;;;5022570;28;20912;-70
2021/06/07 04:59:23;;;;;;;7.65;6.85;;;20.30;81.70;;;;;;5023956;28;20188;-69
2021/06/07 05:01:49;;;;;;;5.82;5.45;;;20.30;81.50;;;;;;5026265;28;20195;-69
2021/06/07 05:04:15;;;;;;;6.78;6.18;;;20.40;81.40;;;;;;5027542;28;20574;-69
2021/06/07 05:06:40;;;;;;;5.95;5.55;;;20.50;81.50;;;;;;5022732;28;20188;-69
2021/06/07 05:09:06;;;;;;;6.72;6.05;;;20.60;81.10;;;;;;5025330;28;20670;-70
2021/06/07 05:11:32;;;;;;;6.78;6.28;;;20.70;80.90;;;;;;5022469;28;21021;-70
2021/06/07 05:13:58;;;;;;;6.60;6.13;;;20.70;80.70;;;;;;5019447;28;20267;-69
2021/06/07 05:16:24;;;;;;;6.78;6.10;;;20.80;80.50;;;;;;5026124;28;20259;-69
2021/06/07 05:18:50;;;;;;;7.40;6.40;;;20.90;80.60;;;;;;5021353;28;20271;-67
2021/06/07 05:21:16;;;;;;;6.88;6.13;;;20.90;80.80;;;;;;5015857;28;20258;-71
2021/06/07 05:23:41;;;;;;;6.43;5.80;;;21.00;80.70;;;;;;5013972;28;20195;-72
2021/06/07 05:26:07;;;;;;;9.90;6.18;;;21.10;80.40;;;;;;5021614;28;20185;-71
2021/06/07 05:28:33;;;;;;;7.20;6.47;;;21.20;80.30;;;;;;5012976;28;20196;-69
2021/06/07 05:30:59;;;;;;;6.50;6.00;;;21.20;79.80;;;;;;5020273;28;20242;-71
2021/06/07 05:33:25;;;;;;;6.82;6.22;;;21.30;78.90;;;;;;5019777;28;20210;-71
2021/06/07 05:35:51;;;;;;;7.53;6.80;;;21.30;78.50;;;;;;5014814;28;20196;-70
2021/06/07 05:38:19;;;;;;;6.57;5.97;;;21.40;78.40;;;;;;5021511;28;20187;-70
2021/06/07 05:40:48;;;;;;;6.25;5.85;;;21.50;78.20;;;;;;5025111;28;20202;-71
2021/06/07 05:43:17;;;;;;;7.30;6.60;;;21.50;78.00;;;;;;5017659;28;20279;-71
2021/06/07 05:45:44;;;;;;;6.07;5.75;;;21.60;78.00;;;;;;5018310;28;20275;-73
2021/06/07 05:48:09;;;;;;;6.22;5.72;;;21.70;77.40;;;;;;5026744;28;20180;-73
2021/06/07 05:50:36;;;;;;;6.50;6.00;;;21.70;77.30;;;;;;5022266;28;20239;-72
2021/06/07 05:53:03;;;;;;;7.30;6.65;;;21.80;76.80;;;;;;5026553;28;20216;-73
2021/06/07 05:55:35;;;;;;;6.72;6.20;;;21.80;76.80;;;;;;5015000;28;20310;-73
2021/06/07 05:58:05;;;;;;;6.75;6.30;;;21.90;76.40;;;;;;5017147;28;20210;-73
2021/06/07 06:00:34;;;;;;;6.35;5.85;;;22.00;75.20;;;;;;5012061;28;20208;-73
2021/06/07 06:05:44;;;;;;;8.00;5.78;;;22.10;75.50;;;;;;5025368;28;20318;-73
2021/06/07 06:08:10;;;;;;;5.50;5.20;;;22.20;75.70;;;;;;5026694;28;20226;-73
2021/06/07 06:10:38;;;;;;;5.55;5.10;;;22.20;75.10;;;;;;5015757;28;20662;-73
2021/06/07 06:13:04;;;;;;;5.78;5.38;;;22.20;74.90;;;;;;5018135;28;20208;-74
2021/06/07 06:15:30;;;;;;;6.55;5.95;;;22.30;75.00;;;;;;5022046;28;20212;-73
2021/06/07 06:17:56;;;;;;;5.75;5.20;;;22.30;75.00;;;;;;5025717;28;20285;-73
2021/06/07 06:20:29;;;;;;;6.53;5.65;;;22.40;74.90;;;;;;5019481;28;20196;-73
2021/06/07 06:22:55;;;;;;;6.00;5.60;;;22.50;75.00;;;;;;5026746;28;20222;-71
2021/06/07 06:25:21;;;;;;;5.28;5.00;;;22.50;74.30;;;;;;5025479;28;20267;-71
2021/06/07 06:27:47;;;;;;;5.97;5.47;;;22.60;74.30;;;;;;5028265;28;20181;-71
2021/06/07 06:30:18;;;;;;;5.10;4.82;;;22.70;74.20;;;;;;5022822;28;20177;-71
2021/06/07 06:32:46;;;;;;;5.57;5.38;;;22.70;73.30;;;;;;5022103;28;20215;-71
2021/06/07 06:35:14;;;;;;;5.32;5.03;;;22.60;73.30;;;;;;5025715;28;20183;-71
2021/06/07 06:37:41;;;;;;;5.35;5.15;;;22.60;73.80;;;;;;5029378;28;20211;-71
2021/06/07 06:40:07;;;;;;;5.90;5.40;;;22.60;74.00;;;;;;5019234;28;20184;-70
2021/06/07 06:42:35;;;;;;;5.47;5.18;;;22.50;73.90;;;;;;5028998;28;20282;-70
2021/06/07 06:45:03;;;;;;;5.65;5.38;;;22.50;74.00;;;;;;5028099;28;20188;-70
2021/06/07 06:47:29;;;;;;;5.35;5.07;;;22.50;73.70;;;;;;5026760;28;20200;-69
2021/06/07 06:49:55;;;;;;;6.45;5.93;;;22.40;73.90;;;;;;5024579;28;20334;-71
2021/06/07 06:52:21;;;;;;;5.45;5.25;;;22.40;74.30;;;;;;5025000;28;20582;-71
2021/06/07 06:54:46;;;;;;;6.00;5.50;;;22.40;74.30;;;;;;5026807;28;20190;-70
2021/06/07 06:57:12;;;;;;;5.50;5.28;;;22.50;74.80;;;;;;5024981;28;20667;-70
2021/06/07 06:59:38;;;;;;;5.45;5.15;;;22.60;74.70;;;;;;5021433;28;20184;-70
2021/06/07 07:02:04;;;;;;;5.97;5.50;;;22.70;74.60;;;;;;5023122;28;20243;-70
2021/06/07 07:04:29;;;;;;;6.40;5.82;;;22.80;74.60;;;;;;5021952;28;20566;-71
2021/06/07 07:06:55;;;;;;;6.47;5.95;;;22.90;75.00;;;;;;5025465;28;20269;-70
2021/06/07 07:09:20;;;;;;;6.05;5.50;;;23.00;74.00;;;;;;5027846;28;20185;-70
2021/06/07 07:11:47;;;;;;;5.65;5.28;;;23.10;73.70;;;;;;5025455;28;20323;-70
2021/06/07 07:14:12;;;;;;;5.90;5.32;;;23.20;73.70;;;;;;5023974;28;20292;-71
2021/06/07 07:16:38;;;;;;;5.88;5.57;;;23.30;74.00;;;;;;5027785;28;20383;-70
2021/06/07 07:19:04;;;;;;;6.80;6.10;;;23.40;73.80;;;;;;5025745;28;20191;-71
2021/06/07 07:21:29;;;;;;;6.57;6.07;;;23.50;73.70;;;;;;5025331;28;20191;-70
2021/06/07 07:23:55;;;;;;;6.30;5.70;;;23.60;73.60;;;;;;5028365;28;20669;-71
2021/06/07 07:26:21;;;;;;;5.32;5.13;;;23.70;72.90;;;;;;5027564;28;20250;-70
2021/06/07 07:28:46;;;;;;;5.05;4.85;;;23.80;73.00;;;;;;5034551;28;20188;-71
2021/06/07 07:31:12;;;;;;;5.40;5.10;;;23.90;72.60;;;;;;5034974;28;20299;-70
2021/06/07 07:33:39;;;;;;;5.53;5.20;;;23.90;72.00;;;;;;5034536;28;20793;-69
2021/06/07 07:36:07;;;;;;;6.60;5.80;;;24.00;72.30;;;;;;5034059;28;20203;-70
2021/06/07 07:38:33;;;;;;;5.22;4.90;;;24.10;71.80;;;;;;5032436;28;20242;-70
2021/06/07 07:40:59;;;;;;;5.93;5.20;;;24.10;71.50;;;;;;5020535;28;20176;-68
2021/06/07 07:43:25;;;;;;;5.85;5.35;;;24.20;71.50;;;;;;5016735;28;20254;-69
2021/06/07 07:45:51;;;;;;;6.60;6.20;;;24.30;71.50;;;;;;5020207;28;20184;-69
2021/06/07 07:48:16;;;;;;;5.90;5.60;;;24.40;70.90;;;;;;5017619;28;20186;-68
2021/06/07 07:50:42;;;;;;;5.70;5.47;;;24.40;70.60;;;;;;5023219;28;20184;-68
2021/06/07 07:53:08;;;;;;;6.15;5.18;;;24.40;70.90;;;;;;5026597;28;20302;-68
2021/06/07 07:55:35;;;;;;;5.75;5.45;;;24.50;70.80;;;;;;5023262;28;20180;-68
2021/06/07 07:58:04;;;;;;;6.63;6.18;;;24.60;70.30;;;;;;5025741;28;20211;-68
2021/06/07 08:00:30;;;;;;;6.18;5.88;;;24.60;69.80;;;;;;5034177;28;20188;-68
2021/06/07 08:02:59;;;;;;;6.05;5.70;;;24.50;69.90;;;;;;5027195;28;20248;-68
2021/06/07 08:05:25;;;;;;;5.82;5.38;;;24.50;69.90;;;;;;5027433;28;20214;-68
2021/06/07 08:07:51;;;;;;;6.57;5.95;;;24.50;70.00;;;;;;5029645;28;20185;-68
2021/06/07 08:10:17;;;;;;;6.00;5.60;;;24.60;70.10;;;;;;5025148;28;20192;-67
2021/06/07 08:12:42;;;;;;;5.03;4.82;;;24.70;69.80;;;;;;5039863;28;20280;-68
2021/06/07 08:15:28;;;;;;;6.68;6.15;;;24.90;70.10;;;;;;5037900;28;20180;-70
2021/06/07 08:17:53;;;;;;;6.22;5.82;;;25.10;69.70;;;;;;5032831;28;20740;-69
2021/06/07 08:20:20;;;;;;;6.40;5.80;;;25.30;69.40;;;;;;5028896;28;20194;-69
2021/06/07 08:22:50;;;;;;;6.57;5.97;;;25.50;68.80;;;;;;5034838;28;20187;-68
2021/06/07 08:25:18;;;;;;;6.07;5.65;;;25.70;68.70;;;;;;5023732;28;20184;-67
2021/06/07 08:27:45;;;;;;;5.60;5.30;;;25.80;68.10;;;;;;5027923;28;20215;-69
2021/06/07 08:30:12;;;;;;;6.85;6.40;;;25.90;68.20;;;;;;5030055;28;20195;-68
2021/06/07 08:32:39;;;;;;;5.43;5.22;;;26.00;68.10;;;;;;5029180;28;20220;-69
2021/06/07 08:35:08;;;;;;;5.68;5.38;;;26.10;67.40;;;;;;5029511;28;20279;-71
2021/06/07 08:37:34;;;;;;;6.30;5.82;;;26.10;67.20;;;;;;5029995;28;20196;-69
2021/06/07 08:40:00;;;;;;;5.70;5.30;;;26.00;67.10;;;;;;5031442;28;20183;-65
2021/06/07 08:42:27;;;;;;;5.75;5.45;;;25.80;67.10;;;;;;5033211;28;20188;-69
2021/06/07 08:44:53;;;;;;;6.15;5.68;;;25.70;67.70;;;;;;5037182;28;20230;-70
2021/06/07 08:47:19;;;;;;;6.57;5.93;;;25.70;68.30;;;;;;5027884;28;20180;-69
2021/06/07 08:49:45;;;;;;;6.05;5.72;;;25.70;67.90;;;;;;5030414;28;20607;-69
2021/06/07 08:52:13;;;;;;;6.28;5.85;;;25.70;67.50;;;;;;5031412;28;20219;-69
2021/06/07 08:54:38;;;;;;;5.70;5.40;;;25.70;67.80;;;;;;5029227;28;20287;-69
2021/06/07 08:57:05;;;;;;;5.85;5.57;;;25.70;68.10;;;;;;5032765;28;20713;-69
2021/06/07 08:59:31;;;;;;;6.60;6.30;;;25.70;68.10;;;;;;5033159;28;20306;-68
2021/06/07 09:02:01;;;;;;;6.18;5.78;;;25.50;68.00;;;;;;5029844;28;20278;-67
2021/06/07 09:04:27;;;;;;;6.53;6.03;;;25.50;67.90;;;;;;5031371;28;20732;-68
2021/06/07 09:06:53;;;;;;;4.28;4.05;;;25.20;68.50;;;;;;5029066;28;20181;-67
2021/06/07 09:09:24;;;;;;;4.13;3.90;;;25.00;67.40;;;;;;5029815;28;20190;-68
2021/06/07 09:11:58;;;;;;;4.45;4.22;;;24.90;66.60;;;;;;5034111;28;20239;-68
2021/06/07 09:14:30;;;;;;;4.65;4.38;;;24.60;67.60;;;;;;5032653;28;20278;-68
2021/06/07 09:16:57;;;;;;;4.32;4.13;;;24.40;68.30;;;;;;5032266;28;20849;-68
2021/06/07 09:19:30;;;;;;;4.50;4.20;;;24.20;68.20;;;;;;5034557;28;20250;-68
2021/06/07 09:22:21;;;;;;;4.68;4.10;;;24.10;68.80;;;;;;5030333;28;20312;-68
2021/06/07 09:25:11;;;;;;;5.28;5.07;;;24.00;69.30;;;;;;5031404;28;20183;-68
2021/06/07 09:27:38;;;;;;;5.78;5.47;;;24.00;70.10;;;;;;5029474;28;20195;-68
2021/06/07 09:30:24;;;;;;;5.90;5.43;;;23.90;70.60;;;;;;5034102;28;20623;-68
2021/06/07 09:33:10;;;;;;;7.40;5.78;;;23.70;71.50;;;;;;5032908;28;20216;-68
2021/06/07 09:35:36;;;;;;;5.65;5.32;;;23.50;72.30;;;;;;5031841;28;20176;-67
2021/06/07 09:38:06;;;;;;;5.70;5.30;;;23.20;72.30;;;;;;5031537;28;20182;-68
2021/06/07 09:40:32;;;;;;;4.43;4.22;;;23.00;72.90;;;;;;5032587;28;20298;-67
2021/06/07 09:43:00;;;;;;;4.22;4.03;;;22.70;73.50;;;;;;5035912;28;20254;-68
2021/06/07 09:45:46;;;;;;;4.32;4.13;;;22.30;74.30;;;;;;5036892;28;20188;-70
2021/06/07 09:48:14;;;;;;;4.65;4.40;;;22.00;75.40;;;;;;5036342;28;20198;-68
2021/06/07 09:51:01;;;;;;;7.53;4.32;;;21.80;76.50;;;;;;5035656;28;20200;-68
2021/06/07 09:53:54;;;;;;;4.70;4.50;;;21.60;77.90;;;;;;5036338;28;20195;-69
2021/06/07 09:56:20;;;;;;;5.55;5.15;;;21.50;77.60;;;;;;5036816;28;20720;-68
2021/06/07 09:58:47;;;;;;;5.50;5.20;;;21.50;78.70;;;;;;5035185;28;20202;-68
2021/06/07 10:01:21;;;;;;;6.15;5.53;;;21.50;79.00;;;;;;5035417;28;20180;-69
2021/06/07 10:03:54;;;;;;;5.63;5.38;;;21.50;79.10;;;;;;5032374;28;20186;-68
2021/06/07 10:06:23;;;;;;;5.72;5.45;;;21.50;80.70;;;;;;5037224;28;20187;-68
2021/06/07 10:08:58;;;;;;;6.13;5.57;;;21.60;80.10;;;;;;5036060;28;20184;-68
2021/06/07 10:11:40;;;;;;;6.88;6.05;;;21.60;79.60;;;;;;5033488;28;20211;-68
2021/06/07 10:14:19;;;;;;;5.93;5.43;;;21.60;80.40;;;;;;5035680;28;20570;-68
2021/06/07 10:17:02;;;;;;;5.93;5.57;;;21.60;80.20;;;;;;5036817;28;20179;-68
2021/06/07 10:22:05;;;;;;;5.85;5.55;;;21.60;80.60;;;;;;5037505;28;20184;-66
2021/06/07 10:24:31;;;;;;;5.38;4.90;;;21.50;80.90;;;;;;5035019;28;20184;-67
2021/06/07 10:26:57;;;;;;;5.95;5.63;;;21.50;80.30;;;;;;5036368;28;20180;-68
2021/06/07 10:29:43;;;;;;;5.45;5.13;;;21.50;80.30;;;;;;5036530;28;20955;-69
2021/06/07 10:32:12;;;;;;;5.90;5.50;;;21.40;80.30;;;;;;5038076;28;20204;-69
2021/06/07 10:34:54;;;;;;;6.28;5.72;;;21.30;80.40;;;;;;5033783;28;20180;-68
2021/06/07 10:37:22;;;;;;;6.90;6.20;;;21.20;81.90;;;;;;5036043;28;20184;-68
2021/06/07 10:39:48;;;;;;;6.80;6.32;;;20.90;83.60;;;;;;5034667;28;20578;-67
2021/06/07 10:42:24;;;;;;;7.75;7.07;;;20.60;85.60;;;;;;5037249;28;20207;-68
2021/06/07 10:44:57;;;;;;;7.10;6.50;;;20.30;86.20;;;;;;5037693;28;20176;-70
2021/06/07 10:47:39;;;;;;;9.10;5.60;;;20.00;88.70;;;;;;5033050;28;20645;-69
2021/06/07 10:50:08;;;;;;;6.03;5.63;;;19.90;87.60;;;;;;5035162;28;20180;-69
2021/06/07 10:53:02;;;;;;;4.88;4.68;;;19.70;87.00;;;;;;5031696;28;20224;-68
2021/06/07 10:55:40;;;;;;;3.90;3.70;;;19.50;86.70;;;;;;5035055;28;20195;-69
2021/06/07 10:58:07;;;;;;;4.78;4.32;;;19.40;85.90;;;;;;5034010;28;20226;-69
2021/06/07 11:00:48;;;;;;;4.13;3.67;;;19.40;86.30;;;;;;5035909;28;20188;-69
2021/06/07 11:03:22;;;;;;;4.80;4.50;;;19.30;86.60;;;;;;5032393;28;20869;-69
2021/06/07 11:05:50;;;;;;;4.60;4.40;;;19.30;86.80;;;;;;5037276;28;20235;-67
2021/06/07 11:08:21;;;;;;;4.55;4.25;;;19.30;87.10;;;;;;5035871;28;20626;-69
2021/06/07 11:11:14;;;;;;;4.22;3.85;;;19.30;86.60;;;;;;5035281;28;20179;-67
2021/06/07 11:14:01;;;;;;;4.75;4.38;;;19.40;87.40;;;;;;5036923;28;20199;-68
2021/06/07 11:16:36;;;;;;;4.25;4.07;;;19.50;87.00;;;;;;5031640;28;20188;-68
2021/06/07 11:19:14;;;;;;;5.75;4.20;;;19.50;86.70;;;;;;5034185;28;20180;-67
2021/06/07 11:22:02;;;;;;;4.45;4.20;;;19.60;87.70;;;;;;5039622;28;20262;-68
2021/06/07 11:24:35;;;;;;;4.25;4.05;;;19.70;86.00;;;;;;5036251;28;20184;-68
2021/06/07 11:27:04;;;;;;;4.13;3.75;;;19.80;86.10;;;;;;5039124;28;20187;-68
2021/06/07 11:29:30;;;;;;;3.72;3.63;;;20.00;86.70;;;;;;5034226;28;20565;-67
2021/06/07 11:32:11;;;;;;;3.55;3.42;;;20.10;86.10;;;;;;5036152;28;20223;-67
2021/06/07 11:34:49;;;;;;;4.63;3.67;;;20.30;86.10;;;;;;5032732;28;20190;-68
2021/06/07 11:37:17;;;;;;;3.83;3.63;;;20.50;85.80;;;;;;5034498;28;20194;-68
2021/06/07 11:39:42;;;;;;;3.70;3.60;;;20.70;86.00;;;;;;5035372;28;20187;-69
2021/06/07 11:42:14;;;;;;;4.53;4.05;;;21.00;84.60;;;;;;5035467;28;20666;-68
2021/06/07 11:44:45;;;;;;;3.53;3.42;;;21.30;83.40;;;;;;5035452;28;20192;-69
2021/06/07 11:47:23;;;;;;;4.47;3.95;;;21.80;84.60;;;;;;5033526;28;20191;-68
2021/06/07 11:49:57;;;;;;;3.20;3.03;;;22.50;84.70;;;;;;5036821;28;20175;-68
2021/06/07 11:52:32;;;;;;;4.00;3.70;;;23.10;82.80;;;;;;5033603;28;20212;-68
2021/06/07 11:55:32;;;;;;;3.40;3.30;;;23.80;80.00;;;;;;5035955;28;20179;-69
2021/06/07 11:58:13;;;;;;;4.25;4.05;;;24.30;78.30;;;;;;4975984;28;20309;-71
2021/06/07 12:00:41;;;;;;;3.78;3.67;;;24.80;76.90;;;;;;4971446;28;20196;-70
2021/06/07 12:03:09;;;;;;;4.13;3.97;;;25.30;76.40;;;;;;4969702;28;20660;-70
2021/06/07 12:05:36;;;;;;;4.03;3.72;;;25.80;75.70;;;;;;4974489;28;20260;-71
2021/06/07 12:08:11;;;;;;;4.60;4.25;;;26.10;75.70;;;;;;4985781;28;20186;-71
2021/06/07 12:10:39;;;;;;;3.22;3.13;;;26.30;74.50;;;;;;4987565;28;20188;-70
2021/06/07 12:13:22;;;;;;;4.00;3.83;;;26.60;69.20;;;;;;4969556;28;20302;-70
2021/06/07 12:15:55;;;;;;;3.95;3.75;;;26.90;71.70;;;;;;4980373;28;20200;-71
2021/06/07 12:18:40;;;;;;;4.05;3.45;;;27.20;71.40;;;;;;4986150;28;20194;-72
2021/06/07 12:21:18;;;;;;;3.65;3.55;;;27.70;68.50;;;;;;4970840;28;20333;-72
2021/06/07 12:23:58;;;;;;;3.70;3.50;;;28.10;67.60;;;;;;4967245;28;20206;-72
2021/06/07 12:29:21;;;;;;;3.72;3.45;;;29.00;68.10;;;;;;4979180;28;20796;-74
2021/06/07 12:32:08;;;;;;;3.97;3.65;;;29.50;66.80;;;;;;4975442;28;20270;-74
2021/06/07 12:34:36;;;;;;;3.28;3.17;;;30.10;66.50;;;;;;4995867;28;20381;-72
2021/06/07 12:37:02;;;;;;;3.35;3.25;;;30.80;65.60;;;;;;5030452;28;20250;-71
2021/06/07 12:39:29;;;;;;;3.20;3.13;;;31.60;62.50;;;;;;5024894;28;20238;-70
2021/06/07 12:41:54;;;;;;;4.13;3.60;;;32.40;60.90;;;;;;5024773;28;20247;-71
2021/06/07 12:44:24;;;;;;;4.88;4.57;;;32.90;60.70;;;;;;5026911;28;20191;-71
2021/06/07 12:46:52;;;;;;;5.55;5.35;;;33.20;58.50;;;;;;5023622;28;20247;-70
2021/06/07 12:49:26;;;;;;;4.57;4.47;;;32.80;57.20;;;;;;5038876;28;20259;-69
2021/06/07 12:52:00;;;;;;;4.68;4.47;;;31.90;58.00;;;;;;5024167;28;20219;-70
2021/06/07 12:54:28;;;;;;;4.57;4.40;;;31.30;60.00;;;;;;5037689;28;20179;-69
2021/06/07 12:56:56;;;;;;;4.85;4.65;;;30.70;61.30;;;;;;5028016;28;20184;-70
2021/06/07 12:59:30;;;;;;;4.70;4.60;;;30.30;62.20;;;;;;5031557;28;20182;-70
2021/06/07 13:01:58;;;;;;;4.70;4.50;;;30.10;63.00;;;;;;5017594;28;20188;-70
2021/06/07 13:04:36;;;;;;;5.18;5.00;;;29.90;62.60;;;;;;5025134;28;20876;-71
2021/06/07 13:07:14;;;;;;;4.85;4.65;;;29.80;63.20;;;;;;5017982;28;20177;-69